createdAt,value
2019-04-11T00:00:31.375Z,38.61
2019-04-11T00:01:46.937Z,38.89
2019-04-11T00:02:51.141Z,38.56
2019-04-11T00:03:59.860Z,38.61
2019-04-11T00:05:08.499Z,38.67
2019-04-11T00:06:17.260Z,38.67
2019-04-11T00:07:25.584Z,38.73
2019-04-11T00:08:35.513Z,38.64
2019-04-11T00:09:44.935Z,38.61
2019-04-11T00:10:53.545Z,38.71
2019-04-11T00:12:02.056Z,38.50
2019-04-11T00:13:19.793Z,38.48
2019-04-11T00:14:20.002Z,38.70
2019-04-11T00:15:28.763Z,38.60
2019-04-11T00:16:37.357Z,38.44
2019-04-11T00:17:46.016Z,38.55
2019-04-11T00:18:54.737Z,38.33
2019-04-11T00:20:02.787Z,38.15
2019-04-11T00:21:10.825Z,38.15
2019-04-11T00:22:19.472Z,38.37
2019-04-11T00:23:27.768Z,38.51
2019-04-11T00:24:36.693Z,38.61
2019-04-11T00:25:44.804Z,38.51
2019-04-11T00:26:52.805Z,38.47
2019-04-11T00:28:01.582Z,38.48
2019-04-11T00:29:10.136Z,38.54
2019-04-11T00:30:19.830Z,38.56
2019-04-11T00:31:28.564Z,38.39
2019-04-11T00:32:37.885Z,38.52
2019-04-11T00:33:46.652Z,38.40
2019-04-11T00:34:55.310Z,38.35
2019-04-11T00:36:04.198Z,38.34
2019-04-11T00:37:12.766Z,38.22
2019-04-11T00:38:21.440Z,38.30
2019-04-11T00:39:29.971Z,38.19
2019-04-11T00:40:39.440Z,38.17
2019-04-11T00:41:48.269Z,38.02
2019-04-11T00:42:56.787Z,38.21
2019-04-11T00:44:06.369Z,38.20
2019-04-11T00:45:15.896Z,38.26
2019-04-11T00:46:24.592Z,38.30
2019-04-11T00:47:33.166Z,38.22
2019-04-11T00:48:41.829Z,38.41
2019-04-11T00:49:50.460Z,38.53
2019-04-11T00:50:59.319Z,38.39
2019-04-11T00:52:08.677Z,38.33
2019-04-11T00:53:16.742Z,38.35
2019-04-11T00:54:24.834Z,38.45
2019-04-11T00:55:32.938Z,38.25
2019-04-11T00:56:42.276Z,38.25
2019-04-11T00:57:50.352Z,38.27
2019-04-11T00:58:58.439Z,38.47
2019-04-11T01:00:09.321Z,38.54
2019-04-11T01:01:17.701Z,38.75
2019-04-11T01:02:26.319Z,38.64
2019-04-11T01:03:35.921Z,38.50
2019-04-11T01:04:45.338Z,38.40
2019-04-11T01:05:53.996Z,38.51
2019-04-11T01:07:03.109Z,38.55
2019-04-11T01:08:11.533Z,38.49
2019-04-11T01:09:20.108Z,38.50
2019-04-11T01:10:28.324Z,38.57
2019-04-11T01:11:37.878Z,38.65
2019-04-11T01:12:46.933Z,38.70
2019-04-11T01:13:55.755Z,38.62
2019-04-11T01:15:04.965Z,38.67
2019-04-11T01:16:17.852Z,38.61
2019-04-11T01:17:26.043Z,38.60
2019-04-11T01:18:34.511Z,38.58
2019-04-11T01:19:42.764Z,38.70
2019-04-11T01:20:51.515Z,38.48
2019-04-11T01:22:01.162Z,38.54
2019-04-11T01:23:09.379Z,38.49
2019-04-11T01:24:17.773Z,38.65
2019-04-11T01:25:25.970Z,38.75
2019-04-11T01:26:35.122Z,38.55
2019-04-11T01:27:43.796Z,38.57
2019-04-11T01:28:52.535Z,38.76
2019-04-11T01:30:02.364Z,38.83
2019-04-11T01:31:15.629Z,38.74
2019-04-11T01:32:24.454Z,38.86
2019-04-11T01:33:32.428Z,38.83
2019-04-11T01:34:40.552Z,38.59
2019-04-11T01:35:49.819Z,38.48
2019-04-11T01:36:59.528Z,38.87
2019-04-11T01:38:08.289Z,38.81
2019-04-11T01:39:29.953Z,38.87
2019-04-11T01:40:38.267Z,38.91
2019-04-11T01:41:46.754Z,38.96
2019-04-11T01:42:55.504Z,38.86
2019-04-11T01:44:05.895Z,38.51
2019-04-11T01:45:14.830Z,38.68
2019-04-11T01:46:22.816Z,38.80
2019-04-11T01:47:35.981Z,38.85
2019-04-11T01:48:50.004Z,38.77
2019-04-11T01:49:58.728Z,39.05
2019-04-11T01:51:07.544Z,39.18
2019-04-11T01:52:15.423Z,38.83
2019-04-11T01:53:24.697Z,39.00
2019-04-11T01:54:32.717Z,39.35
2019-04-11T01:55:40.944Z,38.87
2019-04-11T01:56:49.524Z,38.89
2019-04-11T01:57:58.283Z,38.84
2019-04-11T01:59:06.992Z,38.97
2019-04-11T02:00:18.152Z,39.23
2019-04-11T02:01:30.670Z,39.17
2019-04-11T02:02:42.339Z,39.22
2019-04-11T02:03:55.321Z,39.41
2019-04-11T02:05:05.268Z,39.58
2019-04-11T02:06:13.888Z,39.16
2019-04-11T02:07:22.597Z,39.33
2019-04-11T02:08:31.297Z,39.58
2019-04-11T02:09:40.155Z,39.73
2019-04-11T02:10:48.740Z,39.74
2019-04-11T02:11:56.762Z,39.57
2019-04-11T02:13:05.712Z,39.61
2019-04-11T02:14:16.380Z,39.34
2019-04-11T02:15:25.272Z,39.37
2019-04-11T02:16:34.799Z,39.60
2019-04-11T02:17:43.249Z,39.73
2019-04-11T02:18:51.920Z,39.50
2019-04-11T02:20:00.683Z,40.11
2019-04-11T02:21:09.406Z,39.48
2019-04-11T02:22:24.981Z,39.82
2019-04-11T02:23:51.140Z,39.87
2019-04-11T02:25:00.821Z,40.27
2019-04-11T02:26:16.783Z,40.80
2019-04-11T02:27:27.342Z,40.25
2019-04-11T02:28:35.358Z,40.03
2019-04-11T02:29:44.731Z,39.69
2019-04-11T02:30:56.235Z,40.00
2019-04-11T02:32:05.497Z,40.49
2019-04-11T02:33:15.880Z,40.30
2019-04-11T02:34:23.682Z,39.93
2019-04-11T02:35:31.703Z,40.17
2019-04-11T02:36:40.541Z,39.95
2019-04-11T02:37:51.983Z,40.05
2019-04-11T02:39:05.779Z,40.47
2019-04-11T02:40:11.145Z,40.24
2019-04-11T02:41:20.988Z,40.62
2019-04-11T02:42:30.718Z,40.45
2019-04-11T02:43:42.144Z,40.43
2019-04-11T02:45:05.924Z,40.49
2019-04-11T02:46:11.755Z,40.14
2019-04-11T02:47:13.605Z,40.33
2019-04-11T02:48:20.374Z,40.23
2019-04-11T02:49:28.305Z,40.18
2019-04-11T02:50:38.694Z,40.26
2019-04-11T02:51:47.326Z,40.20
2019-04-11T02:52:58.476Z,40.84
2019-04-11T02:54:07.748Z,40.78
2019-04-11T02:55:17.107Z,40.86
2019-04-11T02:56:25.815Z,41.00
2019-04-11T02:57:36.336Z,40.44
2019-04-11T02:58:46.329Z,40.68
2019-04-11T02:59:56.031Z,40.86
2019-04-11T03:01:06.981Z,41.60
2019-04-11T03:02:17.555Z,40.60
2019-04-11T03:03:25.317Z,40.57
2019-04-11T03:04:34.754Z,40.30
2019-04-11T03:05:44.206Z,40.45
2019-04-11T03:06:53.236Z,40.65
2019-04-11T03:08:06.615Z,40.50
2019-04-11T03:09:13.163Z,41.02
2019-04-11T03:10:21.430Z,40.72
2019-04-11T03:11:30.384Z,41.20
2019-04-11T03:12:40.536Z,40.42
2019-04-11T03:13:54.693Z,41.36
2019-04-11T03:15:22.744Z,40.97
2019-04-11T03:16:29.620Z,41.52
2019-04-11T03:17:28.794Z,41.85
2019-04-11T03:18:53.441Z,41.63
2019-04-11T03:19:58.163Z,40.82
2019-04-11T03:20:57.774Z,41.54
2019-04-11T03:22:03.488Z,41.62
2019-04-11T03:23:14.529Z,42.17
2019-04-11T03:24:24.183Z,41.42
2019-04-11T03:25:33.015Z,41.41
2019-04-11T03:26:43.395Z,41.73
2019-04-11T03:27:53.753Z,41.77
2019-04-11T03:29:03.601Z,41.93
2019-04-11T03:30:16.358Z,41.84
2019-04-11T03:33:17.324Z,41.74
2019-04-11T03:34:24.276Z,41.40
2019-04-11T03:35:45.760Z,41.88
2019-04-11T03:37:38.655Z,42.45
2019-04-11T03:39:02.504Z,41.98
2019-04-11T03:40:11.446Z,41.58
2019-04-11T03:41:20.320Z,41.76
2019-04-11T03:42:29.960Z,41.83
2019-04-11T03:43:34.706Z,41.98
2019-04-11T03:44:37.555Z,41.70
2019-04-11T03:46:01.430Z,42.10
2019-04-11T03:47:08.353Z,41.89
2019-04-11T03:48:12.366Z,42.40
2019-04-11T03:49:20.989Z,41.95
2019-04-11T03:50:25.156Z,42.56
2019-04-11T03:51:31.329Z,42.22
2019-04-11T03:52:40.785Z,42.38
2019-04-11T03:54:05.129Z,42.30
2019-04-11T03:55:15.288Z,42.92
2019-04-11T03:56:24.603Z,43.33
2019-04-11T03:57:34.316Z,43.19
2019-04-11T03:58:43.763Z,42.78
2019-04-11T03:59:52.358Z,42.87
2019-04-11T04:01:03.439Z,43.53
2019-04-11T04:02:12.969Z,42.74
2019-04-11T04:03:22.479Z,43.64
2019-04-11T04:04:30.891Z,42.79
2019-04-11T04:05:39.714Z,43.06
2019-04-11T04:06:49.904Z,42.77
2019-04-11T04:08:00.145Z,42.63
2019-04-11T04:09:10.762Z,43.71
2019-04-11T04:10:20.528Z,43.83
2019-04-11T04:11:31.611Z,43.74
2019-04-11T04:12:40.302Z,43.11
2019-04-11T04:13:55.782Z,43.98
2019-04-11T04:15:36.501Z,43.52
2019-04-11T04:16:38.564Z,42.96
2019-04-11T04:17:45.483Z,43.70
2019-04-11T04:18:56.518Z,44.19
2019-04-11T04:20:11.040Z,43.20
2019-04-11T04:21:22.550Z,43.98
2019-04-11T04:22:50.028Z,44.07
2019-04-11T04:24:01.386Z,44.25
2019-04-11T04:25:10.291Z,44.41
2019-04-11T04:26:19.233Z,44.11
2019-04-11T04:27:30.349Z,44.50
2019-04-11T04:28:40.669Z,45.16
2019-04-11T04:29:51.854Z,44.91
2019-04-11T04:30:58.057Z,44.07
2019-04-11T04:32:08.255Z,43.94
2019-04-11T04:33:17.099Z,45.18
2019-04-11T04:34:26.102Z,44.19
2019-04-11T04:35:36.206Z,44.22
2019-04-11T04:36:44.125Z,45.00
2019-04-11T04:37:54.409Z,44.72
2019-04-11T04:39:04.184Z,44.28
2019-04-11T04:40:26.932Z,44.37
2019-04-11T04:41:35.116Z,44.16
2019-04-11T04:42:40.236Z,44.63
2019-04-11T04:43:44.461Z,44.45
2019-04-11T04:44:53.866Z,45.01
2019-04-11T04:46:20.396Z,44.62
2019-04-11T04:47:21.040Z,44.53
2019-04-11T04:48:24.340Z,44.33
2019-04-11T04:49:32.334Z,44.39
2019-04-11T04:50:42.193Z,44.30
2019-04-11T04:51:51.147Z,44.01
2019-04-11T04:53:00.921Z,43.98
2019-04-11T04:54:10.090Z,44.08
2019-04-11T04:55:19.412Z,44.77
2019-04-11T04:56:31.599Z,44.50
2019-04-11T04:57:37.888Z,43.92
2019-04-11T04:58:46.719Z,44.42
2019-04-11T04:59:56.351Z,44.74
2019-04-11T05:01:06.817Z,44.20
2019-04-11T05:02:15.215Z,44.12
2019-04-11T05:03:24.534Z,44.56
2019-04-11T05:04:33.765Z,44.31
2019-04-11T05:05:42.519Z,45.21
2019-04-11T05:06:52.915Z,44.15
2019-04-11T05:08:02.736Z,44.65
2019-04-11T05:09:12.833Z,44.49
2019-04-11T05:10:22.172Z,44.29
2019-04-11T05:11:30.661Z,44.01
2019-04-11T05:12:38.924Z,44.32
2019-04-11T05:13:49.258Z,44.83
2019-04-11T05:14:56.407Z,44.12
2019-04-11T05:16:16.377Z,44.49
2019-04-11T05:17:14.947Z,43.95
2019-04-11T05:18:23.714Z,44.03
2019-04-11T05:19:32.068Z,44.77
2019-04-11T05:20:40.723Z,44.89
2019-04-11T05:21:49.828Z,44.06
2019-04-11T05:22:58.188Z,44.74
2019-04-11T05:24:06.317Z,44.93
2019-04-11T05:25:22.799Z,44.59
2019-04-11T05:26:31.407Z,44.64
2019-04-11T05:27:39.817Z,44.28
2019-04-11T05:28:48.825Z,44.76
2019-04-11T05:29:57.233Z,45.18
2019-04-11T05:31:06.047Z,45.16
2019-04-11T05:32:14.148Z,45.27
2019-04-11T05:33:23.203Z,45.86
2019-04-11T05:34:31.440Z,45.67
2019-04-11T05:35:39.601Z,44.53
2019-04-11T05:36:47.664Z,45.49
2019-04-11T05:37:55.821Z,45.82
2019-04-11T05:39:06.632Z,44.85
2019-04-11T05:40:15.272Z,45.49
2019-04-11T05:41:24.616Z,45.19
2019-04-11T05:42:33.389Z,46.15
2019-04-11T05:43:41.853Z,45.41
2019-04-11T05:44:51.455Z,44.92
2019-04-11T05:46:00.239Z,45.73
2019-04-11T05:47:09.016Z,45.40
2019-04-11T05:48:30.703Z,45.72
2019-04-11T05:49:47.510Z,45.28
2019-04-11T05:50:56.250Z,45.15
2019-04-11T05:52:06.350Z,46.29
2019-04-11T05:53:14.207Z,45.88
2019-04-11T05:54:22.302Z,46.52
2019-04-11T05:55:32.112Z,45.76
2019-04-11T05:56:40.203Z,45.28
2019-04-11T05:57:48.388Z,45.61
2019-04-11T05:58:57.884Z,46.54
2019-04-11T06:00:09.823Z,45.69
2019-04-11T06:01:22.486Z,45.64
2019-04-11T06:02:30.230Z,46.57
2019-04-11T06:03:40.999Z,45.34
2019-04-11T06:04:55.923Z,46.00
2019-04-11T06:06:10.844Z,45.40
2019-04-11T06:07:20.975Z,45.39
2019-04-11T06:08:30.747Z,45.21
2019-04-11T06:09:41.676Z,45.62
2019-04-11T06:10:52.527Z,46.29
2019-04-11T06:12:05.298Z,46.25
2019-04-11T06:13:20.897Z,45.49
2019-04-11T06:14:45.669Z,46.23
2019-04-11T06:15:56.713Z,46.19
2019-04-11T06:17:07.281Z,45.33
2019-04-11T06:18:37.400Z,46.06
2019-04-11T06:19:43.863Z,46.00
2019-04-11T06:21:05.397Z,46.64
2019-04-11T06:22:14.817Z,45.60
2019-04-11T06:23:23.476Z,46.46
2019-04-11T06:24:42.634Z,46.04
2019-04-11T06:25:53.356Z,46.64
2019-04-11T06:27:01.421Z,46.33
2019-04-11T06:28:11.748Z,47.21
2019-04-11T06:29:26.233Z,46.84
2019-04-11T06:30:40.196Z,45.68
2019-04-11T06:32:06.120Z,46.54
2019-04-11T06:33:16.495Z,46.24
2019-04-11T06:34:26.929Z,46.36
2019-04-11T06:35:52.658Z,46.11
2019-04-11T06:37:13.794Z,46.15
2019-04-11T06:38:25.475Z,45.92
2019-04-11T06:39:51.577Z,47.07
2019-04-11T06:41:01.985Z,45.95
2019-04-11T06:42:25.434Z,45.63
2019-04-11T06:43:44.561Z,46.62
2019-04-11T06:44:57.048Z,45.95
2019-04-11T06:46:07.095Z,46.35
2019-04-11T06:47:34.592Z,46.66
2019-04-11T06:49:02.625Z,47.35
2019-04-11T06:50:17.354Z,47.00
2019-04-11T06:51:30.271Z,45.88
2019-04-11T06:52:41.212Z,47.23
2019-04-11T06:53:52.601Z,46.90
2019-04-11T06:55:06.713Z,46.92
2019-04-11T06:56:23.240Z,47.12
2019-04-11T06:57:36.272Z,46.97
2019-04-11T06:58:52.008Z,46.85
2019-04-11T07:00:00.920Z,46.88
2019-04-11T07:01:13.989Z,47.29
2019-04-11T07:02:25.028Z,46.17
2019-04-11T07:03:34.822Z,46.62
2019-04-11T07:04:44.594Z,47.88
2019-04-11T07:05:53.196Z,47.21
2019-04-11T07:07:04.396Z,46.59
2019-04-11T07:08:13.813Z,46.54
2019-04-11T07:09:28.704Z,47.49
2019-04-11T07:10:38.722Z,46.49
2019-04-11T07:11:54.393Z,46.73
2019-04-11T07:13:04.184Z,47.44
2019-04-11T07:14:33.223Z,46.95
2019-04-11T07:17:34.345Z,46.94
2019-04-11T07:18:44.246Z,46.70
2019-04-11T07:20:10.934Z,47.46
2019-04-11T07:21:19.402Z,47.32
2019-04-11T07:22:45.085Z,46.91
2019-04-11T07:24:11.796Z,47.36
2019-04-11T07:25:22.379Z,46.71
2019-04-11T07:26:33.008Z,46.81
2019-04-11T07:27:42.977Z,47.12
2019-04-11T07:28:54.273Z,47.06
2019-04-11T07:30:22.753Z,46.50
2019-04-11T07:31:44.192Z,46.55
2019-04-11T07:32:55.002Z,46.50
2019-04-11T07:34:06.197Z,46.29
2019-04-11T07:35:33.990Z,46.35
2019-04-11T07:36:44.330Z,46.74
2019-04-11T07:37:53.334Z,47.00
2019-04-11T07:39:07.896Z,47.27
2019-04-11T07:40:18.449Z,46.45
2019-04-11T07:41:39.037Z,47.62
2019-04-11T07:42:53.053Z,46.77
2019-04-11T07:44:02.396Z,47.14
2019-04-11T07:45:29.905Z,47.00
2019-04-11T07:46:42.984Z,46.87
2019-04-11T07:47:56.965Z,47.71
2019-04-11T07:49:05.980Z,47.97
2019-04-11T07:50:16.781Z,47.22
2019-04-11T07:51:25.356Z,47.74
2019-04-11T07:52:35.930Z,47.24
2019-04-11T07:53:48.067Z,47.41
2019-04-11T07:54:57.004Z,48.39
2019-04-11T07:56:07.697Z,46.99
2019-04-11T07:57:30.626Z,47.89
2019-04-11T07:58:46.385Z,47.59
2019-04-11T07:59:54.091Z,47.05
2019-04-11T08:01:14.718Z,47.72
2019-04-11T08:02:40.907Z,47.55
2019-04-11T08:04:06.011Z,47.57
2019-04-11T08:05:32.434Z,47.16
2019-04-11T08:06:56.307Z,48.42
2019-04-11T08:08:09.152Z,47.79
2019-04-11T08:09:27.498Z,47.54
2019-04-11T08:10:46.090Z,47.19
2019-04-11T08:11:56.175Z,48.79
2019-04-11T08:13:05.975Z,48.99
2019-04-11T08:14:16.169Z,47.88
2019-04-11T08:15:42.536Z,48.08
2019-04-11T08:17:09.349Z,47.65
2019-04-11T08:18:35.344Z,49.36
2019-04-11T08:19:55.375Z,48.48
2019-04-11T08:21:21.878Z,47.58
2019-04-11T08:22:37.532Z,47.88
2019-04-11T08:23:47.758Z,48.14
2019-04-11T08:25:05.037Z,48.01
2019-04-11T08:26:30.776Z,48.63
2019-04-11T08:28:00.242Z,48.47
2019-04-11T08:29:08.985Z,48.23
2019-04-11T08:30:14.922Z,47.83
2019-04-11T08:31:28.926Z,48.05
2019-04-11T08:32:38.521Z,48.70
2019-04-11T08:33:46.786Z,49.27
2019-04-11T08:35:13.297Z,49.15
2019-04-11T08:36:24.159Z,48.81
2019-04-11T08:37:36.264Z,48.92
2019-04-11T08:38:44.757Z,47.94
2019-04-11T08:39:53.924Z,48.76
2019-04-11T08:41:03.082Z,48.91
2019-04-11T08:42:21.302Z,49.29
2019-04-11T08:43:37.310Z,48.62
2019-04-11T08:44:45.521Z,48.79
2019-04-11T08:46:06.619Z,48.49
2019-04-11T08:47:16.145Z,49.03
2019-04-11T08:48:24.687Z,49.70
2019-04-11T08:49:40.146Z,49.57
2019-04-11T08:50:50.429Z,49.47
2019-04-11T08:52:00.143Z,49.73
2019-04-11T08:53:18.461Z,49.21
2019-04-11T08:54:26.317Z,49.40
2019-04-11T08:55:47.659Z,49.31
2019-04-11T08:56:45.903Z,49.04
2019-04-11T08:57:56.115Z,50.28
2019-04-11T08:59:11.382Z,48.76
2019-04-11T09:00:19.421Z,49.14
2019-04-11T09:01:27.731Z,48.89
2019-04-11T09:02:37.405Z,48.73
2019-04-11T09:04:07.398Z,49.95
2019-04-11T09:05:18.234Z,49.41
2019-04-11T09:06:28.336Z,48.58
2019-04-11T09:07:41.476Z,49.06
2019-04-11T09:09:09.073Z,49.03
2019-04-11T09:10:35.929Z,49.01
2019-04-11T09:11:48.992Z,48.54
2019-04-11T09:12:58.811Z,49.60
2019-04-11T09:14:13.716Z,49.18
2019-04-11T09:15:39.577Z,48.68
2019-04-11T09:16:54.069Z,49.56
2019-04-11T09:18:06.151Z,49.87
2019-04-11T09:19:14.678Z,50.15
2019-04-11T09:20:31.801Z,50.54
2019-04-11T09:21:58.332Z,49.66
2019-04-11T09:23:06.496Z,49.05
2019-04-11T09:24:16.727Z,50.14
2019-04-11T09:25:41.820Z,50.81
2019-04-11T09:27:08.704Z,49.72
2019-04-11T09:28:19.567Z,49.71
2019-04-11T09:29:35.121Z,51.18
2019-04-11T09:31:06.230Z,50.24
2019-04-11T09:32:20.461Z,50.44
2019-04-11T09:33:33.152Z,50.92
2019-04-11T09:34:44.041Z,50.22
2019-04-11T09:35:59.757Z,49.74
2019-04-11T09:37:12.410Z,49.79
2019-04-11T09:38:20.833Z,49.56
2019-04-11T09:39:39.334Z,50.13
2019-04-11T09:40:50.133Z,50.15
2019-04-11T09:42:20.214Z,50.28
2019-04-11T09:43:31.957Z,49.91
2019-04-11T09:44:41.805Z,49.32
2019-04-11T09:46:01.954Z,49.87
2019-04-11T09:47:22.246Z,49.84
2019-04-11T09:48:38.031Z,50.54
2019-04-11T09:49:57.975Z,49.37
2019-04-11T09:51:11.496Z,49.62
2019-04-11T09:52:21.346Z,50.30
2019-04-11T09:53:30.325Z,51.04
2019-04-11T09:54:52.633Z,49.30
2019-04-11T09:56:00.588Z,50.02
2019-04-11T09:57:28.955Z,49.44
2019-04-11T09:58:37.913Z,49.53
2019-04-11T09:59:53.903Z,49.72
2019-04-11T10:01:12.505Z,49.76
2019-04-11T10:02:20.967Z,49.25
2019-04-11T10:03:30.718Z,50.20
2019-04-11T10:04:41.697Z,50.16
2019-04-11T10:05:54.642Z,49.58
2019-04-11T10:07:21.711Z,50.77
2019-04-11T10:08:33.067Z,49.72
2019-04-11T10:09:48.586Z,49.75
2019-04-11T10:11:09.987Z,49.67
2019-04-11T10:12:36.118Z,49.68
2019-04-11T10:13:55.388Z,50.21
2019-04-11T10:15:05.101Z,50.12
2019-04-11T10:16:15.858Z,49.98
2019-04-11T10:17:26.303Z,50.56
2019-04-11T10:18:45.284Z,50.41
2019-04-11T10:19:54.132Z,50.50
2019-04-11T10:21:02.482Z,50.00
2019-04-11T10:22:13.123Z,50.04
2019-04-11T10:23:23.027Z,50.35
2019-04-11T10:24:38.886Z,51.07
2019-04-11T10:25:47.634Z,50.61
2019-04-11T10:26:58.460Z,49.95
2019-04-11T10:28:09.447Z,50.29
2019-04-11T10:29:19.261Z,50.44
2019-04-11T10:30:33.541Z,50.76
2019-04-11T10:31:44.364Z,50.05
2019-04-11T10:32:55.316Z,49.80
2019-04-11T10:34:43.846Z,49.88
2019-04-11T10:36:12.922Z,49.68
2019-04-11T10:37:47.707Z,49.43
2019-04-11T10:39:23.378Z,50.12
2019-04-11T10:40:56.660Z,50.03
2019-04-11T10:42:12.973Z,49.65
2019-04-11T10:43:22.385Z,49.42
2019-04-11T10:44:38.933Z,50.03
2019-04-11T10:45:59.232Z,50.00
2019-04-11T10:47:09.937Z,49.73
2019-04-11T10:48:32.581Z,49.20
2019-04-11T10:49:36.585Z,49.31
2019-04-11T10:50:46.635Z,49.90
2019-04-11T10:52:00.344Z,49.72
2019-04-11T10:53:08.958Z,49.49
2019-04-11T10:54:16.897Z,50.24
2019-04-11T10:55:27.375Z,49.27
2019-04-11T10:56:53.685Z,49.56
2019-04-11T10:58:02.542Z,49.09
2019-04-11T10:59:13.245Z,49.13
2019-04-11T11:00:37.552Z,49.11
2019-04-11T11:02:04.381Z,49.38
2019-04-11T11:03:14.270Z,49.34
2019-04-11T11:04:23.992Z,48.83
2019-04-11T11:05:34.618Z,48.88
2019-04-11T11:06:45.093Z,48.62
2019-04-11T11:07:55.439Z,49.17
2019-04-11T11:09:03.942Z,48.98
2019-04-11T11:10:13.883Z,48.89
2019-04-11T11:11:40.763Z,48.84
2019-04-11T11:13:09.715Z,48.85
2019-04-11T11:14:22.779Z,48.96
2019-04-11T11:15:33.791Z,48.87
2019-04-11T11:16:46.994Z,48.60
2019-04-11T11:18:27.210Z,48.56
2019-04-11T11:19:40.927Z,49.02
2019-04-11T11:20:41.499Z,48.77
2019-04-11T11:21:47.848Z,48.62
2019-04-11T11:22:56.052Z,48.76
2019-04-11T11:24:22.218Z,48.18
2019-04-11T11:25:39.245Z,48.25
2019-04-11T11:26:47.667Z,48.65
2019-04-11T11:27:55.823Z,48.49
2019-04-11T11:29:14.642Z,48.11
2019-04-11T11:30:31.827Z,48.76
2019-04-11T11:31:42.781Z,48.48
2019-04-11T11:32:51.754Z,48.33
2019-04-11T11:33:59.938Z,48.43
2019-04-11T11:35:10.774Z,48.28
2019-04-11T11:36:32.074Z,48.01
2019-04-11T11:37:49.266Z,48.27
2019-04-11T11:39:17.449Z,47.92
2019-04-11T11:40:44.693Z,47.72
2019-04-11T11:42:10.664Z,47.63
2019-04-11T11:43:21.146Z,47.63
2019-04-11T11:44:34.988Z,47.65
2019-04-11T11:45:51.764Z,47.59
2019-04-11T11:47:15.509Z,47.67
2019-04-11T11:48:39.716Z,47.72
2019-04-11T11:49:55.638Z,47.97
2019-04-11T11:51:01.203Z,47.88
2019-04-11T11:52:31.904Z,48.09
2019-04-11T11:53:37.166Z,47.83
2019-04-11T11:54:46.426Z,47.85
2019-04-11T11:55:55.722Z,47.59
2019-04-11T11:57:06.540Z,47.77
2019-04-11T11:58:31.399Z,47.91
2019-04-11T11:59:41.302Z,47.46
2019-04-11T12:00:53.889Z,47.07
2019-04-11T12:02:02.331Z,47.38
2019-04-11T12:03:12.901Z,47.31
2019-04-11T12:04:39.354Z,47.43
2019-04-11T12:05:51.887Z,47.56
2019-04-11T12:07:03.727Z,47.67
2019-04-11T12:08:15.357Z,47.45
2019-04-11T12:09:32.089Z,47.45
2019-04-11T12:10:42.011Z,47.47
2019-04-11T12:11:55.513Z,47.29
2019-04-11T12:13:13.342Z,47.34
2019-04-11T12:14:28.100Z,47.17
2019-04-11T12:15:55.761Z,46.99
2019-04-11T12:17:06.712Z,47.16
2019-04-11T12:18:32.941Z,47.09
2019-04-11T12:19:52.367Z,47.32
2019-04-11T12:20:57.155Z,47.05
2019-04-11T12:22:04.325Z,47.24
2019-04-11T12:23:26.126Z,46.98
2019-04-11T12:24:45.100Z,47.06
2019-04-11T12:25:53.581Z,47.04
2019-04-11T12:27:13.218Z,46.96
2019-04-11T12:28:23.904Z,47.11
2019-04-11T12:29:32.249Z,47.12
2019-04-11T12:30:40.332Z,46.95
2019-04-11T12:31:50.238Z,46.94
2019-04-11T12:32:59.222Z,46.92
2019-04-11T12:34:26.030Z,46.73
2019-04-11T12:35:52.672Z,46.69
2019-04-11T12:37:02.114Z,46.80
2019-04-11T12:38:09.963Z,46.83
2019-04-11T12:39:28.964Z,46.87
2019-04-11T12:40:55.011Z,46.94
2019-04-11T12:42:13.472Z,46.78
2019-04-11T12:43:21.763Z,46.72
2019-04-11T12:44:30.368Z,46.73
2019-04-11T12:45:56.308Z,46.93
2019-04-11T12:47:21.076Z,46.86
2019-04-11T12:48:30.832Z,46.81
2019-04-11T12:49:38.500Z,46.46
2019-04-11T12:51:01.525Z,46.52
2019-04-11T12:52:24.543Z,46.49
2019-04-11T12:53:32.571Z,46.66
2019-04-11T12:54:42.263Z,46.76
2019-04-11T12:55:55.123Z,46.69
2019-04-11T12:57:15.095Z,46.60
2019-04-11T12:58:27.413Z,46.32
2019-04-11T12:59:35.511Z,46.23
2019-04-11T13:01:04.083Z,46.33
2019-04-11T13:02:20.052Z,46.46
2019-04-11T13:03:29.502Z,46.45
2019-04-11T13:04:37.952Z,46.38
2019-04-11T13:05:47.612Z,46.34
2019-04-11T13:07:13.976Z,46.43
2019-04-11T13:08:39.966Z,46.44
2019-04-11T13:09:53.096Z,46.51
2019-04-11T13:11:01.251Z,46.50
2019-04-11T13:12:26.223Z,46.39
2019-04-11T13:13:52.012Z,46.16
2019-04-11T13:15:08.791Z,46.05
2019-04-11T13:16:17.099Z,46.01
2019-04-11T13:17:31.002Z,46.04
2019-04-11T13:18:57.281Z,45.87
2019-04-11T13:20:14.815Z,45.88
2019-04-11T13:21:27.599Z,46.16
2019-04-11T13:22:35.490Z,46.21
2019-04-11T13:23:55.622Z,46.22
2019-04-11T13:25:09.176Z,46.24
2019-04-11T13:26:35.377Z,46.11
2019-04-11T13:27:44.838Z,46.06
2019-04-11T13:29:10.593Z,46.14
2019-04-11T13:30:21.709Z,45.82
2019-04-11T13:31:40.641Z,45.83
2019-04-11T13:32:50.181Z,45.88
2019-04-11T13:33:59.794Z,45.94
2019-04-11T13:35:18.132Z,45.74
2019-04-11T13:36:44.267Z,45.71
2019-04-11T13:37:56.936Z,45.77
2019-04-11T13:39:06.740Z,45.71
2019-04-11T13:40:23.368Z,45.71
2019-04-11T13:41:31.077Z,45.67
2019-04-11T13:42:56.904Z,45.83
2019-04-11T13:44:06.849Z,45.89
2019-04-11T13:45:15.531Z,46.00
2019-04-11T13:46:26.394Z,46.12
2019-04-11T13:47:40.355Z,46.21
2019-04-11T13:48:54.119Z,45.93
2019-04-11T13:50:04.106Z,45.89
2019-04-11T13:51:13.908Z,45.99
2019-04-11T13:52:24.267Z,45.94
2019-04-11T13:53:50.122Z,46.09
2019-04-11T13:55:15.151Z,46.00
2019-04-11T13:56:25.386Z,46.03
2019-04-11T13:57:51.234Z,46.17
2019-04-11T13:59:01.198Z,45.92
2019-04-11T14:00:27.795Z,46.05
2019-04-11T14:01:37.398Z,46.07
2019-04-11T14:02:51.108Z,46.28
2019-04-11T14:04:08.985Z,46.13
2019-04-11T14:05:28.261Z,46.24
2019-04-11T14:06:36.237Z,46.15
2019-04-11T14:07:45.828Z,46.00
2019-04-11T14:08:55.549Z,46.17
2019-04-11T14:10:05.400Z,46.07
2019-04-11T14:11:17.706Z,46.03
2019-04-11T14:12:26.365Z,45.91
2019-04-11T14:13:36.042Z,46.07
2019-04-11T14:14:44.372Z,46.19
2019-04-11T14:16:10.743Z,46.05
2019-04-11T14:17:23.438Z,45.97
2019-04-11T14:18:33.359Z,45.88
2019-04-11T14:19:56.425Z,45.98
2019-04-11T14:21:05.937Z,45.91
2019-04-11T14:22:15.399Z,45.92
2019-04-11T14:23:23.005Z,45.96
2019-04-11T14:24:33.327Z,46.01
2019-04-11T14:25:41.233Z,46.02
2019-04-11T14:26:52.175Z,45.88
2019-04-11T14:28:01.632Z,45.70
2019-04-11T14:29:20.566Z,45.72
2019-04-11T14:30:51.519Z,45.92
2019-04-11T14:32:00.923Z,45.90
2019-04-11T14:33:08.886Z,45.85
2019-04-11T14:34:34.631Z,45.82
2019-04-11T14:35:51.438Z,45.90
2019-04-11T14:37:04.669Z,46.04
2019-04-11T14:38:16.794Z,46.01
2019-04-11T14:39:29.437Z,46.01
2019-04-11T14:40:41.995Z,46.08
2019-04-11T14:41:59.798Z,45.94
2019-04-11T14:43:26.019Z,46.06
2019-04-11T14:44:35.913Z,46.08
2019-04-11T14:45:45.569Z,45.76
2019-04-11T14:47:08.942Z,45.89
2019-04-11T14:48:34.944Z,46.12
2019-04-11T14:49:44.052Z,45.78
2019-04-11T14:51:00.603Z,45.92
2019-04-11T14:52:10.212Z,46.51
2019-04-11T14:53:23.413Z,46.37
2019-04-11T14:54:39.027Z,46.50
2019-04-11T14:55:49.015Z,46.06
2019-04-11T14:57:14.484Z,46.38
2019-04-11T14:58:33.827Z,46.16
2019-04-11T14:59:54.027Z,46.57
2019-04-11T15:01:02.671Z,46.38
2019-04-11T15:02:21.227Z,46.29
2019-04-11T15:03:33.831Z,46.51
2019-04-11T15:04:55.694Z,46.67
2019-04-11T15:06:14.617Z,46.28
2019-04-11T15:07:21.814Z,46.52
2019-04-11T15:08:48.131Z,46.42
2019-04-11T15:10:01.862Z,47.11
2019-04-11T15:11:11.483Z,46.86
2019-04-11T15:12:21.321Z,46.59
2019-04-11T15:13:31.305Z,46.32
2019-04-11T15:14:41.982Z,46.47
2019-04-11T15:16:10.848Z,46.80
2019-04-11T15:17:24.362Z,46.55
2019-04-11T15:18:33.477Z,46.74
2019-04-11T15:19:43.294Z,46.78
2019-04-11T15:20:55.291Z,46.70
2019-04-11T15:22:11.502Z,46.93
2019-04-11T15:23:21.074Z,47.00
2019-04-11T15:24:29.097Z,47.19
2019-04-11T15:25:42.939Z,47.26
2019-04-11T15:26:52.530Z,46.86
2019-04-11T15:28:08.008Z,46.82
2019-04-11T15:29:17.783Z,47.46
2019-04-11T15:30:48.521Z,47.15
2019-04-11T15:32:07.737Z,46.80
2019-04-11T15:33:20.113Z,47.15
2019-04-11T15:34:29.910Z,47.31
2019-04-11T15:35:38.077Z,47.18
2019-04-11T15:36:58.005Z,46.83
2019-04-11T15:38:24.106Z,47.36
2019-04-11T15:39:50.162Z,47.16
2019-04-11T15:40:59.690Z,47.84
2019-04-11T15:42:10.202Z,47.09
2019-04-11T15:43:27.443Z,47.32
2019-04-11T15:44:41.777Z,47.33